Everett, WA

1:09 AM PST on December 22, 2014 (GMT -0800)
Lake Stevens | Change Station
CLOSE
Current Station
Personal Weather Station
Location: Everett, WA
Elevation: 397 ft
Nearby Weather Stations

Elev 397 ft 47.99 °N, 122.11 °W | Updated 2 seconds ago

Mostly Cloudy
Mostly Cloudy
43.2 °F
Feels Like 43 °F
N
0.0
Wind Variable Wind from WSW
Gusts 1.3 mph

Today
High -- | Low -- °F
--% Chance of Precip.
Yesterday
High -- | Low -- °F
Precip. -- in
7:55 AM 4:18 PM
New Moon, 0% visible
Pressure 30.15 in
Visibility 8.0 miles
Clouds Scattered Clouds 2800 ft
Mostly Cloudy 3300 ft
Mostly Cloudy 7000 ft
Windchill 43 °F
Dew Point Not available.
Humidity Not available.
Rainfall 0.00 in
Snow Depth Not available.
UV 0 out of 12
Pollen .50 out of 12
Air Quality Not available.
Flu Activity Not available.
METAR KPAE 220853Z AUTO 00000KT 8SM SCT028 BKN033 BKN070 07/06 A3014 RMK AO2 SLP208 T00670056 53023

More Conditions Fewer Conditions

Pressure 30.15 in
Visibility 8.0 miles
Clouds Scattered Clouds 2800 ft
Mostly Cloudy 3300 ft
Mostly Cloudy 7000 ft
Windchill 43 °F
Dew Point Not available.
Humidity Not available.
Rainfall 0.00 in
Snow Depth Not available.
UV 0 out of 12
Pollen .50 out of 12
Air Quality Not available.
Flu Activity Not available.
METAR KPAE 220853Z AUTO 00000KT 8SM SCT028 BKN033 BKN070 07/06 A3014 RMK AO2 SLP208 T00670056 53023

More Conditions Fewer Conditions

10-Day Weather Forecast

Almanac

Astronomy

Dec. 22, 2014 Rise Set
Actual Time
Civil Twilight
Nautical Twilight
Astronomical Twilight
Moon
Length of Visible Light
Length of Day
Tomorrow will be .
, % of the Moon is Illuminated

Today's Extremes

State Highs State Lows

Community

WunderPhotos

Upload Photos

1,779,580 photos uploaded!

WunderBlogs® & News

Nearby

Air Quality

  Air Quality AQ Index Pollutant
Not available.

Snow Depth

Station Depth Elevation

Earthquake Activity

City Distance Mag. Time & Date
Minimum magnitude displayed is 2.5.

Coastal Water Temperatures

Place Temperature

Nearby Weather Stations